createdAt,value
2023-05-11T00:01:44.110Z,3.08
2023-05-11T00:04:12.431Z,2.80
2023-05-11T00:06:40.555Z,2.83
2023-05-11T00:09:09.657Z,2.47
2023-05-11T00:11:38.148Z,2.80
2023-05-11T00:14:06.435Z,2.40
2023-05-11T00:16:34.503Z,2.70
2023-05-11T00:19:03.288Z,2.55
2023-05-11T00:21:32.387Z,2.75
2023-05-11T00:24:00.744Z,2.50
2023-05-11T00:26:29.078Z,2.45
2023-05-11T00:28:57.364Z,2.30
2023-05-11T00:31:26.960Z,2.22
2023-05-11T00:33:59.679Z,2.30
2023-05-11T00:36:27.779Z,2.20
2023-05-11T00:38:56.564Z,2.10
2023-05-11T00:41:25.537Z,2.20
2023-05-11T00:43:53.836Z,2.10
2023-05-11T00:46:24.413Z,2.38
2023-05-11T00:48:52.964Z,2.00
2023-05-11T00:51:22.278Z,2.30
2023-05-11T00:53:50.991Z,2.13
2023-05-11T00:56:21.776Z,2.20
2023-05-11T00:58:50.418Z,2.33
2023-05-11T01:01:19.003Z,2.05
2023-05-11T01:03:48.139Z,2.05
2023-05-11T01:06:44.791Z,2.40
2023-05-11T01:09:23.750Z,2.40
2023-05-11T01:12:07.976Z,2.13
2023-05-11T01:14:45.082Z,2.30
2023-05-11T01:17:31.106Z,2.70
2023-05-11T01:20:09.655Z,2.90
2023-05-11T01:22:57.929Z,2.30
2023-05-11T01:25:41.821Z,2.15
2023-05-11T01:29:04.707Z,2.03
2023-05-11T01:31:34.798Z,2.10
2023-05-11T01:34:06.438Z,2.20
2023-05-11T01:36:42.953Z,2.17
2023-05-11T01:39:15.992Z,2.10
2023-05-11T01:41:52.642Z,1.80
2023-05-11T01:44:28.182Z,2.45
2023-05-11T01:47:00.621Z,2.28
2023-05-11T01:49:33.467Z,2.20
2023-05-11T01:52:04.114Z,2.40
2023-05-11T01:54:32.933Z,2.40
2023-05-11T01:57:03.219Z,2.20
2023-05-11T01:59:32.709Z,2.10
2023-05-11T02:02:05.379Z,2.63
2023-05-11T02:04:35.713Z,2.50
2023-05-11T02:07:04.664Z,1.90
2023-05-11T02:09:34.800Z,2.33
2023-05-11T02:12:05.766Z,2.25
2023-05-11T02:14:36.994Z,2.10
2023-05-11T02:17:09.953Z,2.22
2023-05-11T02:19:40.645Z,2.08
2023-05-11T02:22:13.521Z,2.33
2023-05-11T02:24:42.688Z,2.40
2023-05-11T02:27:15.577Z,2.40
2023-05-11T02:29:43.710Z,2.70
2023-05-11T02:32:17.512Z,1.90
2023-05-11T02:35:02.093Z,2.40
2023-05-11T02:37:33.627Z,2.40
2023-05-11T02:40:08.399Z,2.40
2023-05-11T02:42:40.295Z,2.05
2023-05-11T02:45:11.673Z,2.30
2023-05-11T02:47:45.413Z,2.40
2023-05-11T02:50:18.398Z,2.45
2023-05-11T02:52:48.980Z,2.60
2023-05-11T02:55:23.656Z,2.75
2023-05-11T02:57:52.470Z,4.00
2023-05-11T03:00:21.002Z,2.60
2023-05-11T03:02:50.360Z,3.20
2023-05-11T03:05:21.989Z,2.55
2023-05-11T03:07:57.876Z,2.50
2023-05-11T03:10:28.054Z,2.50
2023-05-11T03:12:56.925Z,2.90
2023-05-11T03:15:26.890Z,2.78
2023-05-11T03:18:00.351Z,2.72
2023-05-11T03:20:31.919Z,2.78
2023-05-11T03:23:01.634Z,2.67
2023-05-11T03:25:30.536Z,2.75
2023-05-11T03:30:33.117Z,2.60
2023-05-11T03:33:04.411Z,2.90
2023-05-11T03:35:35.136Z,2.90
2023-05-11T03:38:06.333Z,5.05
2023-05-11T03:40:35.001Z,2.90
2023-05-11T03:43:09.414Z,3.17
2023-05-11T03:45:38.248Z,3.20
2023-05-11T03:48:12.532Z,2.80
2023-05-11T03:50:43.728Z,3.00
2023-05-11T03:53:13.637Z,3.75
2023-05-11T03:55:42.137Z,3.45
2023-05-11T03:58:11.265Z,2.65
2023-05-11T04:00:40.481Z,3.13
2023-05-11T04:03:12.598Z,3.03
2023-05-11T04:05:41.509Z,3.20
2023-05-11T04:08:13.230Z,3.33
2023-05-11T04:10:41.263Z,2.88
2023-05-11T04:13:12.010Z,3.17
2023-05-11T04:15:40.269Z,3.13
2023-05-11T04:18:11.288Z,3.22
2023-05-11T04:20:39.433Z,3.30
2023-05-11T04:23:10.601Z,3.00
2023-05-11T04:25:38.816Z,3.33
2023-05-11T04:28:09.314Z,3.22
2023-05-11T04:30:37.282Z,3.05
2023-05-11T04:33:05.520Z,2.65
2023-05-11T04:35:39.926Z,2.90
2023-05-11T04:38:08.624Z,3.38
2023-05-11T04:40:36.637Z,3.08
2023-05-11T04:43:04.928Z,3.20
2023-05-11T04:45:35.556Z,3.10
2023-05-11T04:48:04.970Z,2.63
2023-05-11T04:50:33.602Z,3.30
2023-05-11T04:53:02.127Z,3.30
2023-05-11T04:55:30.442Z,3.45
2023-05-11T04:58:00.196Z,3.20
2023-05-11T05:00:30.789Z,3.22
2023-05-11T05:02:59.309Z,4.35
2023-05-11T05:05:29.795Z,3.50
2023-05-11T05:07:58.261Z,3.37
2023-05-11T05:10:26.440Z,4.03
2023-05-11T05:12:57.133Z,3.28
2023-05-11T05:15:27.678Z,3.53
2023-05-11T05:17:56.118Z,3.55
2023-05-11T05:20:24.382Z,3.38
2023-05-11T05:22:53.046Z,3.58
2023-05-11T05:25:22.324Z,3.20
2023-05-11T05:27:52.182Z,3.50
2023-05-11T05:30:21.133Z,3.90
2023-05-11T05:32:53.474Z,4.03
2023-05-11T05:35:21.768Z,3.67
2023-05-11T05:37:50.520Z,3.67
2023-05-11T05:40:19.427Z,3.40
2023-05-11T05:42:51.798Z,3.45
2023-05-11T05:45:22.956Z,3.70
2023-05-11T05:47:52.699Z,3.75
2023-05-11T05:50:21.931Z,3.85
2023-05-11T05:52:50.459Z,3.40
2023-05-11T05:55:18.686Z,4.00
2023-05-11T05:57:49.626Z,3.80
2023-05-11T06:00:18.413Z,3.85
2023-05-11T06:02:54.460Z,3.90
2023-05-11T06:05:26.621Z,3.78
2023-05-11T06:08:09.203Z,3.70
2023-05-11T06:10:41.309Z,4.35
2023-05-11T06:13:11.060Z,4.57
2023-05-11T06:15:43.348Z,3.58
2023-05-11T06:18:24.113Z,4.15
2023-05-11T06:20:52.941Z,4.57
2023-05-11T06:23:21.270Z,4.95
2023-05-11T06:25:49.982Z,4.10
2023-05-11T06:28:18.764Z,4.53
2023-05-11T06:30:48.825Z,4.15
2023-05-11T06:33:17.484Z,3.65
2023-05-11T06:35:46.824Z,4.32
2023-05-11T06:38:16.568Z,4.50
2023-05-11T06:40:44.878Z,3.85
2023-05-11T06:43:13.480Z,4.32
2023-05-11T06:45:47.665Z,4.20
2023-05-11T06:48:16.870Z,4.15
2023-05-11T06:50:47.127Z,3.83
2023-05-11T06:53:17.415Z,4.63
2023-05-11T06:55:45.565Z,4.13
2023-05-11T06:58:14.493Z,4.35
2023-05-11T07:00:43.210Z,3.85
2023-05-11T07:03:12.755Z,4.00
2023-05-11T07:05:41.178Z,4.00
2023-05-11T07:08:09.676Z,4.35
2023-05-11T07:10:37.808Z,4.60
2023-05-11T07:13:06.329Z,4.00
2023-05-11T07:15:34.443Z,4.45
2023-05-11T07:18:03.212Z,4.13
2023-05-11T07:20:37.165Z,4.93
2023-05-11T07:23:05.622Z,3.83
2023-05-11T07:25:33.800Z,3.95
2023-05-11T07:28:02.153Z,4.35
2023-05-11T07:30:30.221Z,4.30
2023-05-11T07:32:58.686Z,4.20
2023-05-11T07:35:27.137Z,4.18
2023-05-11T07:37:58.180Z,3.50
2023-05-11T07:40:26.481Z,3.80
2023-05-11T07:42:55.025Z,4.53
2023-05-11T07:45:23.146Z,4.28
2023-05-11T07:47:51.774Z,3.85
2023-05-11T07:50:21.642Z,4.85
2023-05-11T07:52:52.743Z,4.50
2023-05-11T07:55:26.422Z,4.47
2023-05-11T07:57:56.787Z,3.80
2023-05-11T08:00:25.343Z,3.90
2023-05-11T08:02:56.882Z,4.53
2023-05-11T08:05:25.033Z,3.58
2023-05-11T08:07:53.687Z,4.05
2023-05-11T08:10:21.777Z,4.38
2023-05-11T08:12:50.896Z,4.05
2023-05-11T08:15:19.972Z,3.95
2023-05-11T08:17:51.173Z,4.10
2023-05-11T08:20:20.871Z,4.00
2023-05-11T08:22:51.377Z,3.60
2023-05-11T08:25:20.044Z,4.53
2023-05-11T08:27:48.868Z,3.60
2023-05-11T08:30:17.877Z,3.50
2023-05-11T08:32:58.031Z,4.15
2023-05-11T08:35:27.447Z,4.10
2023-05-11T08:37:55.784Z,3.75
2023-05-11T08:40:29.299Z,4.03
2023-05-11T08:43:01.934Z,3.53
2023-05-11T08:45:33.772Z,3.08
2023-05-11T08:48:05.760Z,3.67
2023-05-11T08:50:35.250Z,3.80
2023-05-11T08:53:04.434Z,3.78
2023-05-11T08:55:38.833Z,4.15
2023-05-11T08:58:08.143Z,3.78
2023-05-11T09:00:37.174Z,3.50
2023-05-11T09:03:06.852Z,3.65
2023-05-11T09:05:38.439Z,3.92
2023-05-11T09:08:12.659Z,3.53
2023-05-11T09:10:40.817Z,3.65
2023-05-11T09:13:09.543Z,4.00
2023-05-11T09:15:38.442Z,4.20
2023-05-11T09:18:08.703Z,3.60
2023-05-11T09:20:36.982Z,4.18
2023-05-11T09:23:08.244Z,3.90
2023-05-11T09:25:39.878Z,3.90
2023-05-11T09:28:15.681Z,3.70
2023-05-11T09:30:44.665Z,3.42
2023-05-11T09:33:23.889Z,3.92
2023-05-11T09:35:53.385Z,3.83
2023-05-11T09:38:25.064Z,3.67
2023-05-11T09:43:29.008Z,2.85
2023-05-11T09:46:01.847Z,3.70
2023-05-11T09:48:35.416Z,2.83
2023-05-11T09:51:05.979Z,2.58
2023-05-11T09:53:44.049Z,2.63
2023-05-11T09:56:17.250Z,2.80
2023-05-11T09:58:55.076Z,3.28
2023-05-11T10:01:38.788Z,2.70
2023-05-11T10:04:22.764Z,2.72
2023-05-11T10:06:54.071Z,2.35
2023-05-11T10:09:27.353Z,3.20
2023-05-11T10:11:56.680Z,2.75
2023-05-11T10:14:28.687Z,2.33
2023-05-11T10:16:58.587Z,2.80
2023-05-11T10:19:27.964Z,2.90
2023-05-11T10:21:57.415Z,4.30
2023-05-11T10:24:26.483Z,3.88
2023-05-11T10:26:57.476Z,3.38
2023-05-11T10:29:26.793Z,3.10
2023-05-11T10:32:04.594Z,3.10
2023-05-11T10:34:34.268Z,2.90
2023-05-11T10:37:04.464Z,3.50
2023-05-11T10:39:33.482Z,3.17
2023-05-11T10:42:31.062Z,2.83
2023-05-11T10:45:21.891Z,3.10
2023-05-11T10:48:31.366Z,2.97
2023-05-11T10:51:26.915Z,3.08
2023-05-11T10:54:14.661Z,2.95
2023-05-11T10:56:55.153Z,3.03
2023-05-11T10:59:29.311Z,2.80
2023-05-11T11:02:01.796Z,3.10
2023-05-11T11:04:43.543Z,2.70
2023-05-11T11:07:17.422Z,2.70
2023-05-11T11:10:01.180Z,2.92
2023-05-11T11:12:31.240Z,3.65
2023-05-11T11:15:02.782Z,2.90
2023-05-11T11:17:36.055Z,2.72
2023-05-11T11:20:08.767Z,2.97
2023-05-11T11:22:38.652Z,2.97
2023-05-11T11:25:13.760Z,3.00
2023-05-11T11:27:44.904Z,3.00
2023-05-11T11:30:19.395Z,2.70
2023-05-11T11:32:49.556Z,2.72
2023-05-11T11:35:40.580Z,2.88
2023-05-11T11:38:12.599Z,2.58
2023-05-11T11:41:05.301Z,3.03
2023-05-11T11:43:56.016Z,2.58
2023-05-11T11:46:30.265Z,3.03
2023-05-11T11:49:28.818Z,2.75
2023-05-11T11:51:58.594Z,3.00
2023-05-11T11:54:38.440Z,2.70
2023-05-11T11:57:29.792Z,2.58
2023-05-11T12:00:05.594Z,2.50
2023-05-11T12:02:44.504Z,2.53
2023-05-11T12:05:14.837Z,2.53
2023-05-11T12:08:10.778Z,2.60
2023-05-11T12:15:32.958Z,2.63
2023-05-11T12:18:05.987Z,2.40
2023-05-11T12:20:36.943Z,2.80
2023-05-11T12:23:05.076Z,2.70
2023-05-11T12:25:33.520Z,2.30
2023-05-11T12:28:02.460Z,2.70
2023-05-11T12:30:32.873Z,2.40
2023-05-11T12:33:04.522Z,2.25
2023-05-11T12:35:34.545Z,2.30
2023-05-11T12:38:08.489Z,2.35
2023-05-11T12:41:08.165Z,2.30
2023-05-11T12:43:36.676Z,2.33
2023-05-11T12:46:08.232Z,2.35
2023-05-11T12:48:36.714Z,2.22
2023-05-11T12:51:04.987Z,2.38
2023-05-11T12:53:37.159Z,2.28
2023-05-11T12:56:06.431Z,2.10
2023-05-11T12:58:43.369Z,2.10
2023-05-11T13:01:12.226Z,2.00
2023-05-11T13:03:45.630Z,2.10
2023-05-11T13:06:14.286Z,2.30
2023-05-11T13:08:47.105Z,2.63
2023-05-11T13:11:26.836Z,2.00
2023-05-11T13:13:57.797Z,2.60
2023-05-11T13:16:31.974Z,2.30
2023-05-11T13:19:14.492Z,2.15
2023-05-11T13:21:47.055Z,2.00
2023-05-11T13:29:38.444Z,2.22
2023-05-11T13:32:07.684Z,2.40
2023-05-11T13:35:04.982Z,2.10
2023-05-11T13:38:31.177Z,2.30
2023-05-11T13:41:00.188Z,2.25
2023-05-11T13:43:54.763Z,2.00
2023-05-11T13:46:50.679Z,2.38
2023-05-11T13:49:21.378Z,2.25
2023-05-11T13:52:15.980Z,2.30
2023-05-11T13:54:50.171Z,2.47
2023-05-11T13:57:22.418Z,2.40
2023-05-11T14:00:17.058Z,1.80
2023-05-11T14:02:48.323Z,1.80
2023-05-11T14:05:18.026Z,1.73
2023-05-11T14:07:48.220Z,1.80
2023-05-11T14:10:17.828Z,2.17
2023-05-11T14:12:46.703Z,2.47
2023-05-11T14:15:17.418Z,2.30
2023-05-11T14:17:46.118Z,2.25
2023-05-11T14:20:14.404Z,2.20
2023-05-11T14:22:42.961Z,2.40
2023-05-11T14:25:12.477Z,2.33
2023-05-11T14:27:41.278Z,2.13
2023-05-11T14:30:10.211Z,1.90
2023-05-11T14:32:38.644Z,2.20
2023-05-11T14:35:06.951Z,2.10
2023-05-11T14:37:36.270Z,2.10
